ADDS METAR Data INFO
IDs: Format: Raw Decoded Include TAF

Data at: 0848 UTC 22 Feb 2018

KGCM 220835Z AUTO 01003KT 3SM BR OVC007 00/M01 A3036 RMK AO2
KGCM 220815Z AUTO 36003KT 5SM BR OVC007 00/M01 A3036 RMK AO2
KGCM 220755Z AUTO 02005KT 7SM OVC007 00/M01 A3036 RMK AO2
KGCM 220735Z AUTO 06006KT 7SM OVC007 00/M01 A3035 RMK AO2
KGCM 220715Z AUTO 05008KT 7SM OVC007 00/M01 A3035 RMK AO2
KGCM 220655Z AUTO 03005KT 7SM OVC007 M01/M01 A3036 RMK AO2
KGCM 220635Z AUTO 03005KT 7SM OVC007 M01/M02 A3036 RMK AO2
KGCM 220615Z AUTO 04008KT 10SM OVC007 M01/M02 A3037 RMK AO2
KGCM 220555Z AUTO 04007KT 10SM OVC007 M01/M02 A3038 RMK AO2
KGCM 220535Z AUTO 04008KT 10SM OVC007 M01/M02 A3038 RMK AO2
KGCM 220515Z AUTO 04008KT 10SM OVC007 M01/M02 A3037 RMK AO2
KGCM 220455Z AUTO 03009G14KT 10SM OVC007 M01/M02 A3037 RMK AO2
KGCM 220435Z AUTO 03008KT 7SM OVC007 M01/M02 A3037 RMK AO2
KGCM 220415Z AUTO 03010KT 7SM OVC007 M01/M02 A3036 RMK AO2
KGCM 220355Z AUTO 02008G15KT 10SM OVC007 M01/M02 A3036 RMK AO2
KGCM 220035Z AUTO 08011G14KT 10SM OVC009 M01/M02 A3036 RMK AO2
KGCM 220015Z AUTO 07010KT 10SM OVC009 M01/M02 A3038 RMK AO2
KGCM 212355Z AUTO 07011G17KT 7SM UP OVC009 M01/M02 A3040 RMK AO2
KGCM 212335Z AUTO 06009KT 10SM UP OVC009 M01/M02 A3042 RMK AO2
KGCM 212315Z AUTO 04008G15KT 10SM UP OVC009 M01/M02 A3042 RMK AO2
KGCM 212255Z AUTO 04010KT 7SM UP OVC009 M01/M02 A3041 RMK AO2 P0002
KGCM 212235Z AUTO 05010KT 5SM UP OVC011 M01/M02 A3043 RMK AO2 P0002
KGCM 212215Z AUTO 04007KT 5SM UP OVC011 M01/M03 A3045 RMK AO2
KGCM 212155Z AUTO 03007KT 4SM UP OVC013 M01/M03 A3045 RMK AO2 P0001
KGCM 212135Z AUTO 02006KT 5SM UP OVC013 M01/M03 A3045 RMK AO2
KGCM 212115Z AUTO 02006KT 10SM OVC013 M01/M03 A3045 RMK AO2
KGCM 212055Z AUTO 03006KT 10SM UP OVC013 M01/M03 A3044 RMK AO2
KGCM 212035Z AUTO 03011G15KT 10SM OVC013 M01/M04 A3041 RMK AO2
KGCM 212015Z AUTO 04010G17KT 10SM OVC013 M02/M04 A3040 RMK AO2
KGCM 211955Z AUTO 04010G18KT 10SM OVC013 M02/M04 A3041 RMK AO2
KGCM 211935Z AUTO 03013G16KT 10SM OVC013 M02/M04 A3041 RMK AO2 LTG DSNT SW
KGCM 211915Z AUTO 01010KT 10SM OVC013 M02/M04 A3044 RMK AO2
KGCM 211835Z AUTO 03012G19KT 10SM OVC013 M02/M04 A3042 RMK AO2
KGCM 211815Z AUTO 03013G18KT 10SM OVC013 M02/M04 A3042 RMK AO2
KGCM 211755Z AUTO 03010G20KT 10SM OVC013 M02/M04 A3044 RMK AO2
KGCM 211735Z AUTO 05015KT 10SM OVC013 M02/M05 A3045 RMK AO2 LTG DSNT SW
KGCM 211715Z AUTO 05011G16KT 10SM OVC013 M02/M05 A3047 RMK AO2
KGCM 211655Z AUTO 03012G19KT 10SM OVC013 M02/M05 A3048 RMK AO2
KGCM 211635Z AUTO 02012G17KT 10SM OVC013 M02/M05 A3047 RMK AO2
KGCM 211615Z AUTO 02008G17KT 10SM OVC013 M03/M05 A3047 RMK AO2
KGCM 211555Z AUTO 04012G16KT 10SM OVC013 M03/M05 A3045 RMK AO2
KGCM 211535Z AUTO 02010G14KT 10SM OVC013 M03/M05 A3048 RMK AO2
KGCM 211515Z AUTO 01007KT 10SM OVC013 M03/M05 A3049 RMK AO2
KGCM 211455Z AUTO 02009G16KT 10SM OVC013 M03/M05 A3047 RMK AO2
KGCM 211435Z AUTO 02009G18KT 10SM OVC013 M03/M05 A3048 RMK AO2
KGCM 211415Z AUTO 03011G16KT 10SM OVC013 M03/M05 A3047 RMK AO2
KGCM 211355Z AUTO 02010G15KT 10SM OVC013 M03/M05 A3047 RMK AO2
KGCM 211335Z AUTO 02011G17KT 10SM OVC013 M03/M06 A3045 RMK AO2
KGCM 211315Z AUTO 02011G16KT 10SM OVC013 M03/M05 A3045 RMK AO2
KGCM 211255Z AUTO 03013G17KT 10SM OVC013 M03/M05 A3043 RMK AO2
KGCM 210755Z AUTO 36007KT 10SM OVC013 M03/M05 A3036 RMK AO2
KGCM 210735Z AUTO 01007KT 325V025 10SM OVC013 M02/M05 A3035 RMK AO2
KGCM 210715Z AUTO 01010G14KT 10SM OVC013 M02/M05 A3034 RMK AO2
KGCM 210655Z AUTO 36009KT 10SM OVC013 M02/M04 A3033 RMK AO2
KGCM 210635Z AUTO 02010G14KT 10SM OVC013 M02/M04 A3033 RMK AO2
KGCM 210615Z AUTO 01008KT 10SM OVC013 M02/M04 A3032 RMK AO2
KGCM 210555Z AUTO 01011G14KT 10SM OVC011 M02/M03 A3031 RMK AO2